sensor_id;sensor_type;location;lat;lon;timestamp;pressure;altitude;pressure_sealevel;temperature;humidity
83195;BME280;73090;49.282;11.402;2023-11-18T00:00:32;97124.00;;;1.63;96.33
83195;BME280;73090;49.282;11.402;2023-11-18T00:04:34;97132.59;;;1.63;96.27
83195;BME280;73090;49.282;11.402;2023-11-18T00:08:36;97124.22;;;1.60;96.27
83195;BME280;73090;49.282;11.402;2023-11-18T00:12:38;97143.91;;;1.62;96.64
83195;BME280;73090;49.282;11.402;2023-11-18T00:16:43;97137.91;;;1.62;96.57
83195;BME280;73090;49.282;11.402;2023-11-18T00:20:45;97149.09;;;1.62;96.66
83195;BME280;73090;49.282;11.402;2023-11-18T00:24:47;97152.63;;;1.61;96.45
83195;BME280;73090;49.282;11.402;2023-11-18T00:28:48;97150.97;;;1.60;96.43
83195;BME280;73090;49.282;11.402;2023-11-18T00:32:50;97145.06;;;1.58;96.29
83195;BME280;73090;49.282;11.402;2023-11-18T00:36:53;97143.19;;;1.60;96.23
83195;BME280;73090;49.282;11.402;2023-11-18T00:40:54;97145.91;;;1.59;96.34
83195;BME280;73090;49.282;11.402;2023-11-18T00:44:56;97152.84;;;1.58;96.46
83195;BME280;73090;49.282;11.402;2023-11-18T00:48:58;97154.63;;;1.58;96.21
83195;BME280;73090;49.282;11.402;2023-11-18T00:53:00;97151.06;;;1.59;96.17
83195;BME280;73090;49.282;11.402;2023-11-18T00:57:02;97157.91;;;1.60;96.18
83195;BME280;73090;49.282;11.402;2023-11-18T01:01:04;97155.22;;;1.61;96.35
83195;BME280;73090;49.282;11.402;2023-11-18T01:05:08;97154.50;;;1.59;96.27
83195;BME280;73090;49.282;11.402;2023-11-18T01:09:12;97154.28;;;1.62;96.29
83195;BME280;73090;49.282;11.402;2023-11-18T01:13:13;97157.22;;;1.58;96.25
83195;BME280;73090;49.282;11.402;2023-11-18T01:17:15;97148.00;;;1.54;96.12
83195;BME280;73090;49.282;11.402;2023-11-18T01:21:17;97143.41;;;1.46;95.81
83195;BME280;73090;49.282;11.402;2023-11-18T01:25:19;97156.56;;;1.43;96.10
83195;BME280;73090;49.282;11.402;2023-11-18T01:29:21;97150.94;;;1.49;96.60
83195;BME280;73090;49.282;11.402;2023-11-18T01:33:23;97147.66;;;1.47;96.47
83195;BME280;73090;49.282;11.402;2023-11-18T01:37:25;97155.41;;;1.47;96.05
83195;BME280;73090;49.282;11.402;2023-11-18T01:41:27;97167.56;;;1.47;96.22
83195;BME280;73090;49.282;11.402;2023-11-18T01:45:30;97163.19;;;1.47;96.01
83195;BME280;73090;49.282;11.402;2023-11-18T01:49:32;97159.69;;;1.48;96.51
83195;BME280;73090;49.282;11.402;2023-11-18T01:53:39;97156.00;;;1.51;96.46
83195;BME280;73090;49.282;11.402;2023-11-18T01:57:41;97162.84;;;1.52;96.44
83195;BME280;73090;49.282;11.402;2023-11-18T02:01:50;97178.75;;;1.58;96.28
83195;BME280;73090;49.282;11.402;2023-11-18T02:05:54;97177.22;;;1.56;96.17
83195;BME280;73090;49.282;11.402;2023-11-18T02:09:56;97183.91;;;1.47;95.75
83195;BME280;73090;49.282;11.402;2023-11-18T02:14:00;97178.50;;;1.50;95.87
83195;BME280;73090;49.282;11.402;2023-11-18T02:18:06;97168.50;;;1.45;95.93
83195;BME280;73090;49.282;11.402;2023-11-18T02:22:11;97180.09;;;1.40;95.93
83195;BME280;73090;49.282;11.402;2023-11-18T02:26:20;97182.00;;;1.38;96.08
83195;BME280;73090;49.282;11.402;2023-11-18T02:30:23;97178.69;;;1.36;95.97
83195;BME280;73090;49.282;11.402;2023-11-18T02:34:29;97184.91;;;1.33;96.44
83195;BME280;73090;49.282;11.402;2023-11-18T02:38:35;97174.06;;;1.28;96.03
83195;BME280;73090;49.282;11.402;2023-11-18T02:42:43;97177.34;;;1.19;95.80
83195;BME280;73090;49.282;11.402;2023-11-18T02:46:46;97179.91;;;1.19;96.04
83195;BME280;73090;49.282;11.402;2023-11-18T02:50:47;97182.94;;;1.13;95.50
83195;BME280;73090;49.282;11.402;2023-11-18T02:54:49;97182.78;;;1.03;95.49
83195;BME280;73090;49.282;11.402;2023-11-18T02:58:51;97189.16;;;0.99;95.66
83195;BME280;73090;49.282;11.402;2023-11-18T03:02:52;97187.91;;;0.92;95.66
83195;BME280;73090;49.282;11.402;2023-11-18T03:06:54;97198.69;;;0.85;95.97
83195;BME280;73090;49.282;11.402;2023-11-18T03:10:56;97194.81;;;0.80;95.86
83195;BME280;73090;49.282;11.402;2023-11-18T03:14:59;97195.34;;;0.72;95.86
83195;BME280;73090;49.282;11.402;2023-11-18T03:19:02;97202.59;;;0.67;95.93
83195;BME280;73090;49.282;11.402;2023-11-18T03:23:06;97209.84;;;0.62;95.78
83195;BME280;73090;49.282;11.402;2023-11-18T03:27:10;97203.25;;;0.58;95.78
83195;BME280;73090;49.282;11.402;2023-11-18T03:31:12;97202.84;;;0.51;95.68
83195;BME280;73090;49.282;11.402;2023-11-18T03:35:14;97203.28;;;0.45;96.05
83195;BME280;73090;49.282;11.402;2023-11-18T03:39:16;97214.53;;;0.44;96.00
83195;BME280;73090;49.282;11.402;2023-11-18T03:43:18;97223.66;;;0.49;96.32
83195;BME280;73090;49.282;11.402;2023-11-18T03:47:21;97223.31;;;0.54;96.41
83195;BME280;73090;49.282;11.402;2023-11-18T03:51:25;97224.56;;;0.48;96.38
83195;BME280;73090;49.282;11.402;2023-11-18T03:55:26;97218.78;;;0.45;96.45
83195;BME280;73090;49.282;11.402;2023-11-18T03:59:28;97223.13;;;0.44;96.32
83195;BME280;73090;49.282;11.402;2023-11-18T04:03:30;97226.66;;;0.43;96.42
83195;BME280;73090;49.282;11.402;2023-11-18T04:07:34;97223.97;;;0.45;96.37
83195;BME280;73090;49.282;11.402;2023-11-18T04:11:36;97220.53;;;0.44;96.26
83195;BME280;73090;49.282;11.402;2023-11-18T04:15:38;97218.25;;;0.40;96.40
83195;BME280;73090;49.282;11.402;2023-11-18T04:19:39;97214.13;;;0.37;96.34
83195;BME280;73090;49.282;11.402;2023-11-18T04:23:43;97207.19;;;0.38;96.44
83195;BME280;73090;49.282;11.402;2023-11-18T04:27:48;97232.94;;;0.39;96.67
83195;BME280;73090;49.282;11.402;2023-11-18T04:31:49;97235.03;;;0.47;96.46
83195;BME280;73090;49.282;11.402;2023-11-18T04:35:51;97239.38;;;0.46;96.90
83195;BME280;73090;49.282;11.402;2023-11-18T04:39:53;97225.59;;;0.46;96.89
83195;BME280;73090;49.282;11.402;2023-11-18T04:43:56;97232.13;;;0.39;96.27
83195;BME280;73090;49.282;11.402;2023-11-18T04:47:58;97221.91;;;0.37;96.47
83195;BME280;73090;49.282;11.402;2023-11-18T04:52:00;97222.22;;;0.32;96.60
83195;BME280;73090;49.282;11.402;2023-11-18T04:56:02;97232.44;;;0.34;96.56
83195;BME280;73090;49.282;11.402;2023-11-18T05:00:05;97222.31;;;0.31;96.74
83195;BME280;73090;49.282;11.402;2023-11-18T05:04:12;97223.22;;;0.30;96.65
83195;BME280;73090;49.282;11.402;2023-11-18T05:08:20;97216.84;;;0.23;96.28
83195;BME280;73090;49.282;11.402;2023-11-18T05:12:22;97205.25;;;0.15;96.18
83195;BME280;73090;49.282;11.402;2023-11-18T05:16:24;97202.16;;;0.10;96.02
83195;BME280;73090;49.282;11.402;2023-11-18T05:20:26;97211.03;;;0.06;96.23
83195;BME280;73090;49.282;11.402;2023-11-18T05:24:28;97199.97;;;0.04;96.62
83195;BME280;73090;49.282;11.402;2023-11-18T05:28:30;97210.31;;;0.04;96.49
83195;BME280;73090;49.282;11.402;2023-11-18T05:32:32;97218.47;;;-0.02;96.14
83195;BME280;73090;49.282;11.402;2023-11-18T05:36:34;97220.56;;;-0.07;95.97
83195;BME280;73090;49.282;11.402;2023-11-18T05:40:39;97228.41;;;-0.09;96.42
83195;BME280;73090;49.282;11.402;2023-11-18T05:44:44;97231.81;;;-0.08;96.12
83195;BME280;73090;49.282;11.402;2023-11-18T05:48:47;97231.91;;;-0.10;96.54
83195;BME280;73090;49.282;11.402;2023-11-18T05:52:50;97237.72;;;-0.06;96.17
83195;BME280;73090;49.282;11.402;2023-11-18T05:56:53;97239.56;;;-0.08;95.95
83195;BME280;73090;49.282;11.402;2023-11-18T06:00:57;97242.78;;;-0.17;96.19
83195;BME280;73090;49.282;11.402;2023-11-18T06:04:59;97236.97;;;-0.21;96.01
83195;BME280;73090;49.282;11.402;2023-11-18T06:09:00;97247.19;;;-0.20;96.01
83195;BME280;73090;49.282;11.402;2023-11-18T06:13:06;97248.78;;;-0.17;96.37
83195;BME280;73090;49.282;11.402;2023-11-18T06:17:07;97247.81;;;-0.16;96.42
83195;BME280;73090;49.282;11.402;2023-11-18T06:21:14;97241.53;;;-0.12;96.61
83195;BME280;73090;49.282;11.402;2023-11-18T06:25:16;97243.81;;;-0.07;96.65
83195;BME280;73090;49.282;11.402;2023-11-18T06:29:17;97237.53;;;-0.03;96.96
83195;BME280;73090;49.282;11.402;2023-11-18T06:33:20;97245.69;;;0.04;96.89
83195;BME280;73090;49.282;11.402;2023-11-18T06:37:24;97247.66;;;0.13;97.20
83195;BME280;73090;49.282;11.402;2023-11-18T06:41:26;97249.00;;;0.18;96.66
83195;BME280;73090;49.282;11.402;2023-11-18T06:45:35;97244.75;;;0.17;97.08
83195;BME280;73090;49.282;11.402;2023-11-18T06:49:38;97252.28;;;0.21;96.74
83195;BME280;73090;49.282;11.402;2023-11-18T06:53:42;97253.66;;;0.26;97.16
83195;BME280;73090;49.282;11.402;2023-11-18T06:57:47;97257.69;;;0.30;97.27
83195;BME280;73090;49.282;11.402;2023-11-18T07:01:49;97249.41;;;0.38;97.06
83195;BME280;73090;49.282;11.402;2023-11-18T07:05:50;97249.81;;;0.45;97.17
83195;BME280;73090;49.282;11.402;2023-11-18T07:09:52;97247.56;;;0.40;96.84
83195;BME280;73090;49.282;11.402;2023-11-18T07:13:53;97250.25;;;0.39;96.88
83195;BME280;73090;49.282;11.402;2023-11-18T07:17:57;97268.34;;;0.39;96.81
83195;BME280;73090;49.282;11.402;2023-11-18T07:21:59;97269.97;;;0.40;97.11
83195;BME280;73090;49.282;11.402;2023-11-18T07:26:01;97276.31;;;0.48;97.08
83195;BME280;73090;49.282;11.402;2023-11-18T07:30:06;97275.50;;;0.48;97.32
83195;BME280;73090;49.282;11.402;2023-11-18T07:34:11;97282.69;;;0.56;97.29
83195;BME280;73090;49.282;11.402;2023-11-18T07:38:13;97288.22;;;0.51;97.30
83195;BME280;73090;49.282;11.402;2023-11-18T07:42:15;97285.06;;;0.59;97.64
83195;BME280;73090;49.282;11.402;2023-11-18T07:46:19;97283.63;;;0.67;97.40
83195;BME280;73090;49.282;11.402;2023-11-18T07:50:23;97280.84;;;0.70;97.51
83195;BME280;73090;49.282;11.402;2023-11-18T07:54:25;97284.25;;;0.71;97.29
83195;BME280;73090;49.282;11.402;2023-11-18T07:58:26;97279.69;;;0.75;97.47
83195;BME280;73090;49.282;11.402;2023-11-18T08:02:29;97286.09;;;0.82;97.51
83195;BME280;73090;49.282;11.402;2023-11-18T08:06:31;97292.28;;;0.92;97.67
83195;BME280;73090;49.282;11.402;2023-11-18T08:10:34;97291.84;;;0.98;97.12
83195;BME280;73090;49.282;11.402;2023-11-18T08:14:39;97289.00;;;1.14;97.28
83195;BME280;73090;49.282;11.402;2023-11-18T08:18:40;97296.34;;;1.20;96.95
83195;BME280;73090;49.282;11.402;2023-11-18T08:22:43;97302.25;;;1.22;97.07
83195;BME280;73090;49.282;11.402;2023-11-18T08:26:47;97312.06;;;1.30;96.98
83195;BME280;73090;49.282;11.402;2023-11-18T08:30:49;97315.66;;;1.40;97.07
83195;BME280;73090;49.282;11.402;2023-11-18T08:34:52;97291.69;;;1.50;96.76
83195;BME280;73090;49.282;11.402;2023-11-18T08:38:54;97287.59;;;1.58;96.76
83195;BME280;73090;49.282;11.402;2023-11-18T08:42:57;97296.13;;;1.72;96.30
83195;BME280;73090;49.282;11.402;2023-11-18T08:46:59;97295.31;;;1.71;96.04
83195;BME280;73090;49.282;11.402;2023-11-18T08:51:08;97283.91;;;1.74;95.54
83195;BME280;73090;49.282;11.402;2023-11-18T08:55:14;97294.00;;;1.66;95.54
83195;BME280;73090;49.282;11.402;2023-11-18T08:59:19;97291.41;;;1.66;95.81
83195;BME280;73090;49.282;11.402;2023-11-18T09:03:26;97296.50;;;1.67;95.82
83195;BME280;73090;49.282;11.402;2023-11-18T09:07:35;97296.56;;;1.90;96.33
83195;BME280;73090;49.282;11.402;2023-11-18T09:11:38;97306.63;;;2.06;96.29
83195;BME280;73090;49.282;11.402;2023-11-18T09:15:42;97315.50;;;2.26;96.31
83195;BME280;73090;49.282;11.402;2023-11-18T09:19:44;97306.94;;;2.36;95.73
83195;BME280;73090;49.282;11.402;2023-11-18T09:23:47;97296.34;;;2.51;95.52
83195;BME280;73090;49.282;11.402;2023-11-18T09:27:51;97304.88;;;2.76;95.53
83195;BME280;73090;49.282;11.402;2023-11-18T09:31:52;97304.25;;;3.06;94.95
83195;BME280;73090;49.282;11.402;2023-11-18T09:35:55;97316.50;;;3.26;94.95
83195;BME280;73090;49.282;11.402;2023-11-18T09:40:00;97307.47;;;3.53;94.47
83195;BME280;73090;49.282;11.402;2023-11-18T09:44:12;97298.25;;;3.81;93.81
83195;BME280;73090;49.282;11.402;2023-11-18T09:48:17;97288.22;;;4.09;92.35
83195;BME280;73090;49.282;11.402;2023-11-18T09:52:21;97279.84;;;4.27;90.19
83195;BME280;73090;49.282;11.402;2023-11-18T10:00:41;97281.22;;;4.52;88.90
83195;BME280;73090;49.282;11.402;2023-11-18T10:04:46;97272.72;;;4.60;88.64
83195;BME280;73090;49.282;11.402;2023-11-18T10:08:51;97272.34;;;4.64;87.72
83195;BME280;73090;49.282;11.402;2023-11-18T10:12:54;97276.19;;;4.60;86.71
83195;BME280;73090;49.282;11.402;2023-11-18T10:17:06;97276.72;;;4.64;87.92
83195;BME280;73090;49.282;11.402;2023-11-18T10:21:08;97264.66;;;4.94;87.52
83195;BME280;73090;49.282;11.402;2023-11-18T10:25:23;97272.13;;;5.18;86.37
83195;BME280;73090;49.282;11.402;2023-11-18T10:29:25;97262.06;;;4.94;82.62
83195;BME280;73090;49.282;11.402;2023-11-18T10:33:39;97261.56;;;4.79;84.75
83195;BME280;73090;49.282;11.402;2023-11-18T10:37:43;97261.31;;;4.82;85.19
83195;BME280;73090;49.282;11.402;2023-11-18T10:41:45;97261.06;;;4.95;84.64
83195;BME280;73090;49.282;11.402;2023-11-18T10:45:49;97262.06;;;5.03;84.02
83195;BME280;73090;49.282;11.402;2023-11-18T10:49:51;97260.00;;;4.97;83.84
83195;BME280;73090;49.282;11.402;2023-11-18T10:53:53;97265.72;;;4.91;83.94
83195;BME280;73090;49.282;11.402;2023-11-18T10:57:59;97269.56;;;4.87;83.84
83195;BME280;73090;49.282;11.402;2023-11-18T11:02:25;97277.31;;;4.77;82.82
83195;BME280;73090;49.282;11.402;2023-11-18T11:06:27;97281.19;;;4.83;85.17
83195;BME280;73090;49.282;11.402;2023-11-18T11:10:34;97277.94;;;4.90;83.65
83195;BME280;73090;49.282;11.402;2023-11-18T11:14:42;97268.81;;;5.06;83.31
83195;BME280;73090;49.282;11.402;2023-11-18T11:18:49;97264.56;;;5.05;83.79
83195;BME280;73090;49.282;11.402;2023-11-18T11:27:16;97267.44;;;5.12;84.44
83195;BME280;73090;49.282;11.402;2023-11-18T11:31:46;97256.34;;;5.19;83.19
83195;BME280;73090;49.282;11.402;2023-11-18T11:35:54;97252.25;;;5.26;82.93
83195;BME280;73090;49.282;11.402;2023-11-18T11:39:58;97254.16;;;5.34;83.68
83195;BME280;73090;49.282;11.402;2023-11-18T11:44:00;97251.88;;;5.41;83.68
83195;BME280;73090;49.282;11.402;2023-11-18T11:48:03;97248.88;;;5.55;82.17
83195;BME280;73090;49.282;11.402;2023-11-18T11:52:27;97244.88;;;5.71;81.90
83195;BME280;73090;49.282;11.402;2023-11-18T12:00:44;97239.34;;;5.84;80.45
83195;BME280;73090;49.282;11.402;2023-11-18T12:04:47;97230.59;;;5.75;80.01
83195;BME280;73090;49.282;11.402;2023-11-18T12:08:54;97211.09;;;5.69;80.58
83195;BME280;73090;49.282;11.402;2023-11-18T12:13:12;97199.31;;;5.65;81.11
83195;BME280;73090;49.282;11.402;2023-11-18T12:17:22;97198.19;;;5.58;81.69
83195;BME280;73090;49.282;11.402;2023-11-18T12:21:55;97199.72;;;5.51;81.28
83195;BME280;73090;49.282;11.402;2023-11-18T12:25:57;97180.75;;;5.39;81.58
83195;BME280;73090;49.282;11.402;2023-11-18T12:30:07;97170.06;;;5.42;76.98
83195;BME280;73090;49.282;11.402;2023-11-18T12:34:49;97159.75;;;5.50;79.16
83195;BME280;73090;49.282;11.402;2023-11-18T12:39:40;97140.84;;;5.29;77.13
83195;BME280;73090;49.282;11.402;2023-11-18T12:48:24;97128.91;;;5.26;75.59
83195;BME280;73090;49.282;11.402;2023-11-18T12:52:29;97111.91;;;5.32;74.87
83195;BME280;73090;49.282;11.402;2023-11-18T12:56:31;97118.06;;;5.40;72.50
83195;BME280;73090;49.282;11.402;2023-11-18T13:00:33;97129.19;;;5.42;75.11
83195;BME280;73090;49.282;11.402;2023-11-18T13:04:39;97126.59;;;5.42;74.22
83195;BME280;73090;49.282;11.402;2023-11-18T13:08:42;97120.13;;;5.37;72.78
83195;BME280;73090;49.282;11.402;2023-11-18T13:12:43;97133.72;;;5.31;71.06
83195;BME280;73090;49.282;11.402;2023-11-18T13:16:46;97128.09;;;5.25;72.07
83195;BME280;73090;49.282;11.402;2023-11-18T13:20:57;97121.22;;;5.24;72.97
83195;BME280;73090;49.282;11.402;2023-11-18T13:24:59;97117.94;;;5.22;73.43
83195;BME280;73090;49.282;11.402;2023-11-18T13:29:01;97116.00;;;5.15;73.86
83195;BME280;73090;49.282;11.402;2023-11-18T13:33:04;97119.69;;;5.12;74.46
83195;BME280;73090;49.282;11.402;2023-11-18T13:37:06;97119.16;;;5.08;75.31
83195;BME280;73090;49.282;11.402;2023-11-18T13:41:09;97124.78;;;5.04;76.16
83195;BME280;73090;49.282;11.402;2023-11-18T13:45:12;97123.28;;;5.01;77.19
83195;BME280;73090;49.282;11.402;2023-11-18T13:49:34;97123.56;;;4.98;78.41
83195;BME280;73090;49.282;11.402;2023-11-18T13:53:36;97124.50;;;4.97;80.02
83195;BME280;73090;49.282;11.402;2023-11-18T13:57:39;97117.09;;;4.93;82.24
83195;BME280;73090;49.282;11.402;2023-11-18T14:01:40;97111.34;;;4.89;80.78
83195;BME280;73090;49.282;11.402;2023-11-18T14:05:43;97100.38;;;4.85;79.95
83195;BME280;73090;49.282;11.402;2023-11-18T14:09:48;97094.59;;;4.82;80.23
83195;BME280;73090;49.282;11.402;2023-11-18T14:13:52;97083.63;;;4.78;81.83
83195;BME280;73090;49.282;11.402;2023-11-18T14:17:54;97083.91;;;4.75;82.87
83195;BME280;73090;49.282;11.402;2023-11-18T14:21:56;97078.28;;;4.70;83.57
83195;BME280;73090;49.282;11.402;2023-11-18T14:25:58;97078.69;;;4.65;82.74
83195;BME280;73090;49.282;11.402;2023-11-18T14:30:00;97085.97;;;4.62;84.00
83195;BME280;73090;49.282;11.402;2023-11-18T14:34:04;97087.44;;;4.54;87.55
83195;BME280;73090;49.282;11.402;2023-11-18T14:38:05;97084.94;;;4.43;88.56
83195;BME280;73090;49.282;11.402;2023-11-18T14:42:09;97085.06;;;4.32;89.16
83195;BME280;73090;49.282;11.402;2023-11-18T14:46:11;97084.91;;;4.24;89.68
83195;BME280;73090;49.282;11.402;2023-11-18T14:50:19;97057.88;;;4.15;89.43
83195;BME280;73090;49.282;11.402;2023-11-18T14:54:21;97056.91;;;4.06;89.62
83195;BME280;73090;49.282;11.402;2023-11-18T14:58:22;97067.16;;;3.98;90.06
83195;BME280;73090;49.282;11.402;2023-11-18T15:02:24;97038.53;;;3.88;90.09
83195;BME280;73090;49.282;11.402;2023-11-18T15:06:27;97042.28;;;3.74;89.91
83195;BME280;73090;49.282;11.402;2023-11-18T15:10:29;97036.78;;;3.68;90.22
83195;BME280;73090;49.282;11.402;2023-11-18T15:14:30;97044.13;;;3.62;90.54
83195;BME280;73090;49.282;11.402;2023-11-18T15:18:32;97023.88;;;3.56;91.09
83195;BME280;73090;49.282;11.402;2023-11-18T15:22:36;97015.38;;;3.54;91.50
83195;BME280;73090;49.282;11.402;2023-11-18T15:26:38;97014.81;;;3.51;91.76
83195;BME280;73090;49.282;11.402;2023-11-18T15:30:40;97001.13;;;3.49;91.84
83195;BME280;73090;49.282;11.402;2023-11-18T15:34:42;96991.25;;;3.42;91.84
83195;BME280;73090;49.282;11.402;2023-11-18T15:38:44;96991.63;;;3.38;91.91
83195;BME280;73090;49.282;11.402;2023-11-18T15:42:47;96987.38;;;3.37;92.71
83195;BME280;73090;49.282;11.402;2023-11-18T15:46:52;96988.22;;;3.37;92.53
83195;BME280;73090;49.282;11.402;2023-11-18T15:50:54;96986.56;;;3.36;92.59
83195;BME280;73090;49.282;11.402;2023-11-18T15:54:58;96987.00;;;3.41;92.42
83195;BME280;73090;49.282;11.402;2023-11-18T15:59:00;96995.34;;;3.45;92.39
83195;BME280;73090;49.282;11.402;2023-11-18T16:03:02;97003.00;;;3.47;92.43
83195;BME280;73090;49.282;11.402;2023-11-18T16:07:06;97015.88;;;3.48;92.49
83195;BME280;73090;49.282;11.402;2023-11-18T16:11:08;97012.91;;;3.53;92.33
83195;BME280;73090;49.282;11.402;2023-11-18T16:15:12;97013.88;;;3.52;91.96
83195;BME280;73090;49.282;11.402;2023-11-18T16:19:15;97002.38;;;3.54;92.32
83195;BME280;73090;49.282;11.402;2023-11-18T16:23:17;97008.13;;;3.58;92.37
83195;BME280;73090;49.282;11.402;2023-11-18T16:27:19;97016.91;;;3.57;92.13
83195;BME280;73090;49.282;11.402;2023-11-18T16:31:21;97008.84;;;3.60;92.17
83195;BME280;73090;49.282;11.402;2023-11-18T16:35:25;97010.34;;;3.62;92.21
83195;BME280;73090;49.282;11.402;2023-11-18T16:39:27;97009.53;;;3.62;92.10
83195;BME280;73090;49.282;11.402;2023-11-18T16:43:29;97020.34;;;3.67;91.70
83195;BME280;73090;49.282;11.402;2023-11-18T16:47:30;97012.69;;;3.66;91.80
83195;BME280;73090;49.282;11.402;2023-11-18T16:51:33;97023.91;;;3.66;91.78
83195;BME280;73090;49.282;11.402;2023-11-18T16:55:35;97020.72;;;3.62;91.79
83195;BME280;73090;49.282;11.402;2023-11-18T16:59:37;97032.66;;;3.65;91.80
83195;BME280;73090;49.282;11.402;2023-11-18T17:03:38;97024.19;;;3.63;91.59
83195;BME280;73090;49.282;11.402;2023-11-18T17:07:40;97021.31;;;3.66;91.78
83195;BME280;73090;49.282;11.402;2023-11-18T17:11:41;97006.66;;;3.65;91.63
83195;BME280;73090;49.282;11.402;2023-11-18T17:15:43;97008.19;;;3.68;91.40
83195;BME280;73090;49.282;11.402;2023-11-18T17:19:46;96983.28;;;3.65;91.27
83195;BME280;73090;49.282;11.402;2023-11-18T17:23:48;96990.69;;;3.70;91.12
83195;BME280;73090;49.282;11.402;2023-11-18T17:27:49;96991.34;;;3.72;91.00
83195;BME280;73090;49.282;11.402;2023-11-18T17:31:51;96977.53;;;3.71;91.38
83195;BME280;73090;49.282;11.402;2023-11-18T17:35:53;96978.09;;;3.75;91.72
83195;BME280;73090;49.282;11.402;2023-11-18T17:39:54;96975.75;;;3.72;91.82
83195;BME280;73090;49.282;11.402;2023-11-18T17:43:56;96967.28;;;3.70;91.51
83195;BME280;73090;49.282;11.402;2023-11-18T17:47:58;96978.75;;;3.67;91.42
83195;BME280;73090;49.282;11.402;2023-11-18T17:51:59;96970.25;;;3.65;91.80
83195;BME280;73090;49.282;11.402;2023-11-18T17:56:01;96967.81;;;3.63;91.97
83195;BME280;73090;49.282;11.402;2023-11-18T18:00:03;96958.09;;;3.66;91.82
83195;BME280;73090;49.282;11.402;2023-11-18T18:04:13;96961.41;;;3.68;91.64
83195;BME280;73090;49.282;11.402;2023-11-18T18:08:15;96954.94;;;3.62;91.85
83195;BME280;73090;49.282;11.402;2023-11-18T18:12:17;96937.69;;;3.61;91.61
83195;BME280;73090;49.282;11.402;2023-11-18T18:16:19;96940.53;;;3.58;92.00
83195;BME280;73090;49.282;11.402;2023-11-18T18:20:21;96930.31;;;3.56;92.30
83195;BME280;73090;49.282;11.402;2023-11-18T18:24:23;96918.25;;;3.55;92.25
83195;BME280;73090;49.282;11.402;2023-11-18T18:28:24;96910.59;;;3.54;92.55
83195;BME280;73090;49.282;11.402;2023-11-18T18:32:26;96897.72;;;3.52;92.55
83195;BME280;73090;49.282;11.402;2023-11-18T18:36:28;96888.41;;;3.50;92.86
83195;BME280;73090;49.282;11.402;2023-11-18T18:40:30;96880.59;;;3.50;92.83
83195;BME280;73090;49.282;11.402;2023-11-18T18:44:33;96872.53;;;3.53;92.81
83195;BME280;73090;49.282;11.402;2023-11-18T18:48:35;96868.00;;;3.45;92.94
83195;BME280;73090;49.282;11.402;2023-11-18T18:52:36;96862.81;;;3.45;93.15
83195;BME280;73090;49.282;11.402;2023-11-18T18:56:38;96849.41;;;3.40;93.26
83195;BME280;73090;49.282;11.402;2023-11-18T19:00:40;96849.13;;;3.43;93.56
83195;BME280;73090;49.282;11.402;2023-11-18T19:04:41;96841.59;;;3.40;93.59
83195;BME280;73090;49.282;11.402;2023-11-18T19:08:43;96829.72;;;3.37;93.57
83195;BME280;73090;49.282;11.402;2023-11-18T19:12:46;96823.13;;;3.33;93.45
83195;BME280;73090;49.282;11.402;2023-11-18T19:16:47;96809.19;;;3.34;93.51
83195;BME280;73090;49.282;11.402;2023-11-18T19:20:49;96812.88;;;3.32;93.44
83195;BME280;73090;49.282;11.402;2023-11-18T19:24:52;96825.03;;;3.31;93.59
83195;BME280;73090;49.282;11.402;2023-11-18T19:28:54;96827.66;;;3.31;93.62
83195;BME280;73090;49.282;11.402;2023-11-18T19:32:55;96823.94;;;3.34;93.73
83195;BME280;73090;49.282;11.402;2023-11-18T19:36:57;96810.13;;;3.33;93.62
83195;BME280;73090;49.282;11.402;2023-11-18T19:40:59;96821.06;;;3.37;93.76
83195;BME280;73090;49.282;11.402;2023-11-18T19:45:02;96808.47;;;3.32;93.65
83195;BME280;73090;49.282;11.402;2023-11-18T19:49:03;96813.94;;;3.29;94.07
83195;BME280;73090;49.282;11.402;2023-11-18T19:53:05;96795.88;;;3.27;94.67
83195;BME280;73090;49.282;11.402;2023-11-18T19:57:07;96782.91;;;3.27;94.40
83195;BME280;73090;49.282;11.402;2023-11-18T20:01:14;96771.81;;;3.25;94.73
83195;BME280;73090;49.282;11.402;2023-11-18T20:05:20;96756.63;;;3.21;94.85
83195;BME280;73090;49.282;11.402;2023-11-18T20:09:22;96747.09;;;3.21;94.97
83195;BME280;73090;49.282;11.402;2023-11-18T20:13:23;96745.44;;;3.20;95.01
83195;BME280;73090;49.282;11.402;2023-11-18T20:17:25;96728.31;;;3.18;95.09
83195;BME280;73090;49.282;11.402;2023-11-18T20:21:28;96714.78;;;3.14;94.69
83195;BME280;73090;49.282;11.402;2023-11-18T20:25:30;96714.41;;;3.19;94.41
83195;BME280;73090;49.282;11.402;2023-11-18T20:29:32;96699.06;;;3.06;94.25
83195;BME280;73090;49.282;11.402;2023-11-18T20:33:35;96691.53;;;3.03;94.06
83195;BME280;73090;49.282;11.402;2023-11-18T20:37:43;96705.06;;;2.97;94.37
83195;BME280;73090;49.282;11.402;2023-11-18T20:41:49;96694.41;;;2.90;94.46
83195;BME280;73090;49.282;11.402;2023-11-18T20:45:51;96672.09;;;2.87;94.87
83195;BME280;73090;49.282;11.402;2023-11-18T20:49:53;96637.13;;;2.82;95.12
83195;BME280;73090;49.282;11.402;2023-11-18T20:53:55;96637.81;;;2.84;95.26
83195;BME280;73090;49.282;11.402;2023-11-18T20:57:59;96662.38;;;2.80;95.64
83195;BME280;73090;49.282;11.402;2023-11-18T21:02:03;96671.81;;;2.81;95.34
83195;BME280;73090;49.282;11.402;2023-11-18T21:06:06;96671.97;;;2.79;95.50
83195;BME280;73090;49.282;11.402;2023-11-18T21:10:08;96644.63;;;2.75;95.62
83195;BME280;73090;49.282;11.402;2023-11-18T21:14:18;96651.47;;;2.76;95.75
83195;BME280;73090;49.282;11.402;2023-11-18T21:18:23;96667.84;;;2.77;96.04
83195;BME280;73090;49.282;11.402;2023-11-18T21:22:24;96678.50;;;2.73;96.11
83195;BME280;73090;49.282;11.402;2023-11-18T21:26:26;96669.91;;;2.73;96.31
83195;BME280;73090;49.282;11.402;2023-11-18T21:30:28;96664.16;;;2.69;96.39
83195;BME280;73090;49.282;11.402;2023-11-18T21:34:29;96651.59;;;2.75;96.64
83195;BME280;73090;49.282;11.402;2023-11-18T21:38:31;96632.19;;;2.69;96.89
83195;BME280;73090;49.282;11.402;2023-11-18T21:42:33;96623.56;;;2.68;96.81
83195;BME280;73090;49.282;11.402;2023-11-18T21:46:35;96606.38;;;2.67;96.84